Time;durP1;ratioP1;P1;durP2;ratioP2;P2;SDS_P1;SDS_P2;PMS_P1;PMS_P2;Temp;Humidity;BMP_temperature;BMP_pressure;BME280_temperature;BME280_humidity;BME280_pressure;Samples;Min_cycle;Max_cycle;Signal;HPM_P1;HPM_P2
2022/09/29 00:00:23;;;;;;;6.03;5.42;;;;;;;6.10;100.00;98444.98;1761314;80;20950;-65
2022/09/29 00:02:50;;;;;;;4.87;4.40;;;;;;;6.03;100.00;98446.11;1755006;81;20967;-65
2022/09/29 00:05:17;;;;;;;3.85;3.52;;;;;;;5.97;100.00;98453.66;1734876;82;21572;-65
2022/09/29 00:07:44;;;;;;;5.70;2.80;;;;;;;5.94;100.00;98461.97;1734838;82;21073;-65
2022/09/29 00:10:11;;;;;;;2.50;2.12;;;;;;;5.93;100.00;98465.00;1734755;81;20990;-65
2022/09/29 00:12:37;;;;;;;2.08;1.98;;;;;;;5.92;100.00;98467.19;1734732;82;20974;-65
2022/09/29 00:15:06;;;;;;;2.65;2.12;;;;;;;5.92;100.00;98463.77;1734822;82;21006;-65
2022/09/29 00:17:33;;;;;;;3.10;2.90;;;;;;;5.92;100.00;98465.05;1734927;82;21065;-65
2022/09/29 00:20:00;;;;;;;2.85;2.65;;;;;;;5.90;100.00;98471.56;1734795;82;21075;-65
2022/09/29 00:22:27;;;;;;;3.77;3.47;;;;;;;5.90;100.00;98470.72;1734618;82;20982;-65
2022/09/29 00:24:54;;;;;;;3.55;3.25;;;;;;;5.88;100.00;98470.75;1734721;82;20974;-65
2022/09/29 00:27:20;;;;;;;3.35;3.05;;;;;;;5.86;100.00;98463.06;1734808;82;20967;-65
2022/09/29 00:29:47;;;;;;;3.40;3.10;;;;;;;5.84;100.00;98473.05;1734785;81;21018;-66
2022/09/29 00:32:14;;;;;;;4.10;3.72;;;;;;;5.81;100.00;98476.58;1734787;82;22102;-65
2022/09/29 00:34:41;;;;;;;3.95;3.65;;;;;;;5.79;100.00;98487.44;1734817;82;20983;-65
2022/09/29 00:37:10;;;;;;;5.85;3.83;;;;;;;5.78;100.00;98483.63;1734830;82;21037;-65
2022/09/29 00:39:36;;;;;;;3.35;2.95;;;;;;;5.75;100.00;98482.45;1734795;82;21045;-64
2022/09/29 00:42:03;;;;;;;5.70;3.58;;;;;;;5.73;100.00;98477.79;1734795;82;21014;-65
2022/09/29 00:45:06;;;;;;;3.15;2.87;;;;;;;5.72;100.00;98479.97;1734692;82;21233;-66
2022/09/29 00:47:34;;;;;;;3.37;3.08;;;;;;;5.69;100.00;98477.50;1687774;82;20935;-65
2022/09/29 00:50:19;;;;;;;3.77;3.47;;;;;;;5.66;100.00;98484.91;1734786;82;20982;-65
2022/09/29 00:52:50;;;;;;;3.08;2.77;;;;;;;5.64;100.00;98475.54;1733573;82;20958;-65
2022/09/29 00:55:27;;;;;;;3.55;2.55;;;;;;;5.61;100.00;98475.20;1734094;82;21550;-65
2022/09/29 00:58:01;;;;;;;3.72;3.10;;;;;;;5.61;100.00;98473.91;1733159;81;21227;-65
2022/09/29 01:00:27;;;;;;;3.30;3.00;;;;;;;5.59;100.00;98474.45;1731115;82;21482;-65
2022/09/29 01:03:02;;;;;;;3.98;2.70;;;;;;;5.61;100.00;98487.25;1737765;81;20988;-65
2022/09/29 01:05:35;;;;;;;2.75;2.55;;;;;;;5.60;100.00;98490.28;1761458;81;21053;-65
2022/09/29 01:08:14;;;;;;;3.05;2.77;;;;;;;5.58;100.00;98492.55;1761443;81;20998;-65
2022/09/29 01:10:41;;;;;;;3.70;2.87;;;;;;;5.56;100.00;98495.64;1761277;80;21187;-65
2022/09/29 01:13:09;;;;;;;3.60;3.30;;;;;;;5.50;100.00;98506.56;1709976;81;20998;-65
2022/09/29 01:15:36;;;;;;;3.12;2.25;;;;;;;5.46;100.00;98511.88;1761306;81;21101;-66
2022/09/29 01:18:05;;;;;;;2.33;1.90;;;;;;;5.44;100.00;98514.95;1761348;81;21002;-66
2022/09/29 01:20:34;;;;;;;2.10;2.00;;;;;;;5.42;100.00;98515.01;1761286;81;20986;-66
2022/09/29 01:23:15;;;;;;;2.12;1.67;;;;;;;5.40;100.00;98516.80;1761245;81;21116;-66
2022/09/29 01:26:08;;;;;;;3.33;2.40;;;;;;;5.39;100.00;98513.86;1777135;80;20941;-65
2022/09/29 01:28:58;;;;;;;2.55;2.35;;;;;;;5.39;100.00;98516.88;1776782;80;21024;-65
2022/09/29 01:31:47;;;;;;;3.55;2.20;;;;;;;5.36;100.00;98513.96;1777080;80;21453;-65
2022/09/29 01:34:40;;;;;;;5.67;2.15;;;;;;;5.33;100.00;98515.80;1776833;80;20945;-65
2022/09/29 01:37:38;;;;;;;2.72;2.17;;;;;;;5.34;100.00;98516.20;1777334;80;21150;-65
2022/09/29 01:40:18;;;;;;;3.72;2.60;;;;;;;5.35;100.00;98512.72;1777125;80;20945;-65
2022/09/29 01:42:53;;;;;;;3.42;3.12;;;;;;;5.36;100.00;98515.25;1772048;80;20988;-66
2022/09/29 01:45:30;;;;;;;2.85;2.55;;;;;;;5.36;100.00;98517.83;1773528;80;20972;-65
2022/09/29 01:48:05;;;;;;;4.45;3.00;;;;;;;5.39;100.00;98521.59;1775350;80;21012;-65
2022/09/29 01:50:43;;;;;;;2.58;2.37;;;;;;;5.41;100.00;98524.09;1776535;80;21779;-65
2022/09/29 01:53:19;;;;;;;2.62;2.42;;;;;;;5.43;100.00;98522.30;1777122;80;21035;-65
2022/09/29 01:55:52;;;;;;;4.72;3.25;;;;;;;5.47;100.00;98525.16;1777203;80;21582;-65
2022/09/29 01:58:23;;;;;;;3.22;2.92;;;;;;;5.49;100.00;98520.35;1777221;80;20996;-65
2022/09/29 02:00:54;;;;;;;2.55;2.25;;;;;;;5.52;100.00;98520.69;1777274;80;21000;-65
2022/09/29 02:03:28;;;;;;;4.08;3.10;;;;;;;5.56;100.00;98518.84;1776673;80;21127;-65
2022/09/29 02:05:57;;;;;;;3.10;2.75;;;;;;;5.58;100.00;98523.06;1773858;81;20972;-65
2022/09/29 02:08:48;;;;;;;4.92;3.02;;;;;;;5.60;100.00;98521.23;1773981;81;21004;-65
2022/09/29 02:11:15;;;;;;;2.70;2.50;;;;;;;5.63;100.00;98522.87;1773064;81;20952;-65
2022/09/29 02:13:57;;;;;;;3.55;2.77;;;;;;;5.66;100.00;98525.34;1746192;81;20948;-65
2022/09/29 02:16:27;;;;;;;3.08;2.45;;;;;;;5.71;100.00;98528.16;1773918;81;21456;-65
2022/09/29 02:19:00;;;;;;;3.95;2.75;;;;;;;5.77;100.00;98524.52;1774049;81;21463;-65
2022/09/29 02:21:27;;;;;;;4.10;2.95;;;;;;;5.83;100.00;98523.81;1766898;81;21052;-65
2022/09/29 02:23:53;;;;;;;3.55;3.05;;;;;;;5.87;100.00;98521.52;1773976;81;20949;-65
2022/09/29 02:26:20;;;;;;;2.65;2.45;;;;;;;5.92;100.00;98526.99;1745833;81;20972;-65
2022/09/29 02:28:48;;;;;;;7.65;2.95;;;;;;;5.95;100.00;98526.44;1773962;80;21010;-65
2022/09/29 02:31:14;;;;;;;2.60;2.40;;;;;;;6.01;100.00;98529.20;1773910;80;20949;-65
2022/09/29 02:33:41;;;;;;;3.60;3.08;;;;;;;6.06;100.00;98541.05;1745789;81;20952;-65
2022/09/29 02:36:42;;;;;;;3.35;2.58;;;;;;;6.11;100.00;98537.02;1773874;81;21484;-65
2022/09/29 02:39:30;;;;;;;2.58;2.37;;;;;;;6.19;100.00;98536.28;1774072;81;20996;-65
2022/09/29 02:42:19;;;;;;;3.00;2.70;;;;;;;6.28;100.00;98533.33;1773929;81;21213;-65
2022/09/29 02:44:51;;;;;;;6.37;2.98;;;;;;;6.35;100.00;98524.90;1773935;81;21008;-66
2022/09/29 02:48:00;;;;;;;5.35;3.20;;;;;;;6.39;100.00;98520.01;1773966;81;20980;-65
2022/09/29 02:50:54;;;;;;;5.08;3.20;;;;;;;6.41;100.00;98524.63;1773941;81;21040;-65
2022/09/29 02:53:41;;;;;;;4.33;2.77;;;;;;;6.44;100.00;98526.65;1774017;81;21052;-65
2022/09/29 02:56:48;;;;;;;7.25;3.05;;;;;;;6.47;100.00;98536.86;1774076;81;21424;-65
2022/09/29 02:59:23;;;;;;;4.15;3.00;;;;;;;6.49;100.00;98538.94;1773831;80;20981;-65
2022/09/29 03:01:52;;;;;;;3.20;2.90;;;;;;;6.53;100.00;98533.20;1773992;81;20988;-65
2022/09/29 03:04:21;;;;;;;3.60;2.83;;;;;;;6.54;100.00;98533.14;1773703;80;20976;-65
2022/09/29 03:06:47;;;;;;;3.62;2.67;;;;;;;6.53;100.00;98534.05;1773868;80;21040;-65
2022/09/29 03:09:14;;;;;;;4.20;2.60;;;;;;;6.53;100.00;98538.37;1773924;80;21079;-65
2022/09/29 03:11:41;;;;;;;3.85;3.22;;;;;;;6.52;100.00;98541.86;1773785;81;20957;-65
2022/09/29 03:14:08;;;;;;;5.33;3.52;;;;;;;6.53;100.00;98538.37;1773924;81;21059;-65
2022/09/29 03:16:35;;;;;;;3.40;3.02;;;;;;;6.53;100.00;98539.66;1773790;81;20996;-65
2022/09/29 03:19:06;;;;;;;3.20;2.90;;;;;;;6.52;100.00;98532.36;1774058;81;20965;-65
2022/09/29 03:21:33;;;;;;;3.62;3.15;;;;;;;6.51;100.00;98537.14;1773826;81;21417;-65
2022/09/29 03:24:01;;;;;;;4.80;3.35;;;;;;;6.50;100.00;98537.20;1773868;81;21048;-65
2022/09/29 03:26:28;;;;;;;6.08;2.95;;;;;;;6.48;100.00;98532.54;1773916;81;21523;-65
2022/09/29 03:28:55;;;;;;;5.78;3.37;;;;;;;6.46;100.00;98537.77;1773940;81;20980;-65
2022/09/29 03:31:22;;;;;;;3.83;2.98;;;;;;;6.46;100.00;98544.67;1773856;80;21000;-65
2022/09/29 03:33:48;;;;;;;5.05;3.15;;;;;;;6.46;100.00;98542.93;1773885;81;21052;-65
2022/09/29 03:36:15;;;;;;;6.83;3.72;;;;;;;6.47;100.00;98547.20;1773757;81;20976;-65
2022/09/29 03:38:44;;;;;;;8.48;3.70;;;;;;;6.47;100.00;98549.78;1773909;81;21428;-65
2022/09/29 03:41:10;;;;;;;3.92;3.45;;;;;;;6.49;100.00;98552.30;1773898;81;21028;-65
2022/09/29 03:43:39;;;;;;;4.60;3.20;;;;;;;6.52;100.00;98557.35;1773779;81;20997;-65
2022/09/29 03:46:05;;;;;;;3.33;2.75;;;;;;;6.55;100.00;98554.20;1773927;80;21121;-65
2022/09/29 03:48:33;;;;;;;4.65;2.92;;;;;;;6.61;100.00;98560.00;1773698;81;20993;-65
2022/09/29 03:51:00;;;;;;;3.70;3.15;;;;;;;6.65;100.00;98552.53;1773924;81;20949;-65
2022/09/29 03:53:27;;;;;;;3.22;2.90;;;;;;;6.68;100.00;98554.55;1773886;81;21059;-65
2022/09/29 03:55:53;;;;;;;4.50;3.00;;;;;;;6.75;100.00;98556.44;1773834;81;20949;-65
2022/09/29 03:58:20;;;;;;;3.15;2.77;;;;;;;6.77;100.00;98559.36;1773791;80;21135;-66
2022/09/29 04:00:48;;;;;;;4.97;2.60;;;;;;;6.79;100.00;98556.71;1773823;81;20952;-65
2022/09/29 04:03:15;;;;;;;5.95;3.67;;;;;;;6.81;100.00;98557.46;1773752;81;20944;-67
2022/09/29 04:05:43;;;;;;;4.75;3.15;;;;;;;6.82;100.00;98560.44;1773815;80;20960;-66
2022/09/29 04:08:10;;;;;;;13.48;7.62;;;;;;;6.84;100.00;98558.63;1771193;81;20933;-65
2022/09/29 04:10:37;;;;;;;9.55;4.42;;;;;;;6.87;100.00;98557.22;1773932;80;21174;-64
2022/09/29 04:13:04;;;;;;;9.88;3.80;;;;;;;6.91;100.00;98554.45;1745714;81;20941;-64
2022/09/29 04:15:31;;;;;;;7.65;4.58;;;;;;;6.97;100.00;98552.53;1773946;81;20945;-64
2022/09/29 04:17:58;;;;;;;13.65;3.55;;;;;;;7.03;100.00;98554.84;1745894;81;20992;-64
2022/09/29 04:20:25;;;;;;;4.65;3.90;;;;;;;7.10;100.00;98554.98;1773801;81;21389;-64
2022/09/29 04:22:52;;;;;;;5.72;3.02;;;;;;;7.15;100.00;98551.76;1773843;81;21206;-64
2022/09/29 04:25:19;;;;;;;8.23;3.15;;;;;;;7.21;100.00;98543.27;1773794;81;21004;-65
2022/09/29 04:27:46;;;;;;;11.18;5.30;;;;;;;7.28;100.00;98544.30;1773869;81;21055;-64
2022/09/29 04:30:13;;;;;;;7.53;4.00;;;;;;;7.32;100.00;98540.23;1773769;81;20971;-64
2022/09/29 04:32:40;;;;;;;14.55;5.75;;;;;;;7.39;100.00;98538.23;1773897;81;21004;-64
2022/09/29 04:35:08;;;;;;;6.28;3.92;;;;;;;7.42;100.00;98537.63;1773871;81;21099;-64
2022/09/29 04:37:35;;;;;;;6.55;3.17;;;;;;;7.47;100.00;98544.73;1773831;80;21004;-64
2022/09/29 04:40:03;;;;;;;7.17;3.33;;;;;;;7.51;100.00;98535.94;1773727;80;21000;-64
2022/09/29 04:42:30;;;;;;;4.85;3.30;;;;;;;7.56;100.00;98534.45;1773848;81;20992;-64
2022/09/29 04:44:57;;;;;;;8.13;4.05;;;;;;;7.64;100.00;98536.23;1773875;81;21040;-64
2022/09/29 04:47:24;;;;;;;9.48;3.30;;;;;;;7.72;100.00;98526.84;1773847;81;21244;-64
2022/09/29 04:49:50;;;;;;;5.22;2.22;;;;;;;7.79;100.00;98527.80;1773739;80;21517;-64
2022/09/29 04:52:16;;;;;;;11.33;4.90;;;;;;;7.88;100.00;98535.59;1773648;81;21591;-65
2022/09/29 04:54:43;;;;;;;4.67;4.17;;;;;;;7.94;100.00;98527.55;1773794;81;20961;-65
2022/09/29 04:57:11;;;;;;;4.40;3.42;;;;;;;8.02;100.00;98531.06;1773964;81;21008;-64
2022/09/29 04:59:38;;;;;;;9.33;3.20;;;;;;;8.09;100.00;98535.06;1773872;81;21101;-65
2022/09/29 05:02:05;;;;;;;5.85;2.98;;;;;;;8.17;100.00;98526.04;1773717;81;20996;-64
2022/09/29 05:04:31;;;;;;;5.08;4.08;;;;;;;8.23;100.00;98528.32;1770950;78;20991;-64
2022/09/29 05:06:58;;;;;;;5.78;4.20;;;;;;;8.32;100.00;98527.52;1731644;81;21564;-65
2022/09/29 05:09:26;;;;;;;8.78;3.33;;;;;;;8.39;100.00;98532.84;1764294;80;21542;-64
2022/09/29 05:11:55;;;;;;;6.45;3.37;;;;;;;8.45;100.00;98533.81;1731513;83;21055;-64
2022/09/29 05:14:24;;;;;;;12.95;4.35;;;;;;;8.54;100.00;98533.39;1734922;82;20969;-65
2022/09/29 05:16:54;;;;;;;12.40;4.12;;;;;;;8.63;100.00;98537.66;1735157;82;20949;-64
2022/09/29 05:19:22;;;;;;;4.67;3.80;;;;;;;8.75;100.00;98539.30;1742297;81;20989;-65
2022/09/29 05:21:49;;;;;;;6.58;3.67;;;;;;;8.87;100.00;98536.09;1764595;81;21157;-66
2022/09/29 05:24:19;;;;;;;5.50;3.20;;;;;;;8.99;100.00;98528.52;1811979;77;21132;-65
2022/09/29 05:26:47;;;;;;;3.30;2.98;;;;;;;9.13;100.00;98532.20;1788721;79;21028;-64
2022/09/29 05:29:16;;;;;;;13.80;5.12;;;;;;;9.27;100.00;98544.01;1813121;79;20933;-66
2022/09/29 05:31:43;;;;;;;10.55;4.37;;;;;;;9.40;100.00;98539.02;1813132;77;21429;-64
2022/09/29 05:34:10;;;;;;;15.23;4.83;;;;;;;9.54;100.00;98538.71;1813083;78;21512;-64
2022/09/29 05:36:38;;;;;;;13.15;5.42;;;;;;;9.70;100.00;98538.73;1812215;77;21465;-64
2022/09/29 05:39:09;;;;;;;14.87;4.55;;;;;;;9.87;100.00;98541.28;1812924;77;20993;-64
2022/09/29 05:41:37;;;;;;;19.23;5.28;;;;;;;10.05;100.00;98555.04;1813297;77;21488;-64
2022/09/29 05:44:07;;;;;;;15.83;6.17;;;;;;;10.23;100.00;98555.83;1813260;77;20981;-64
2022/09/29 05:50:07;;;;;;;9.00;5.35;;;;;;;10.52;100.00;98550.34;1813010;79;21001;-64
2022/09/29 05:52:36;;;;;;;9.33;4.00;;;;;;;10.69;100.00;98552.83;1813043;79;21425;-65
2022/09/29 05:55:08;;;;;;;9.40;5.08;;;;;;;10.83;100.00;98550.73;1792294;79;21123;-64
2022/09/29 05:57:35;;;;;;;5.33;4.58;;;;;;;10.97;100.00;98547.74;1781033;79;20985;-64
2022/09/29 06:00:04;;;;;;;18.37;5.30;;;;;;;11.12;100.00;98544.70;1781297;79;20992;-63
2022/09/29 06:02:33;;;;;;;8.33;4.75;;;;;;;11.26;100.00;98551.23;1780108;79;21710;-63
2022/09/29 06:05:02;;;;;;;8.55;5.45;;;;;;;11.37;100.00;98547.55;1754093;81;20985;-64
2022/09/29 06:07:31;;;;;;;9.85;5.80;;;;;;;11.50;100.00;98549.41;1759941;80;21483;-64
2022/09/29 06:10:00;;;;;;;8.05;5.37;;;;;;;11.61;100.00;98549.12;1760102;80;20991;-64
2022/09/29 06:12:34;;;;;;;8.55;5.80;;;;;;;11.73;100.00;98537.98;1760085;80;21542;-64
2022/09/29 06:15:05;;;;;;;13.55;4.60;;;;;;;11.87;100.00;98542.84;1760156;81;21797;-64
2022/09/29 06:17:35;;;;;;;10.53;5.25;;;;;;;12.00;100.00;98532.02;1759995;80;21015;-64
2022/09/29 06:20:05;;;;;;;8.10;4.90;;;;;;;12.13;100.00;98535.56;1759981;81;21455;-64
2022/09/29 06:22:32;;;;;;;6.95;4.40;;;;;;;12.29;100.00;98541.95;1759973;81;21423;-63
2022/09/29 06:24:59;;;;;;;6.53;4.75;;;;;;;12.41;100.00;98535.94;1760153;81;21522;-63
2022/09/29 06:27:27;;;;;;;6.58;3.62;;;;;;;12.52;100.00;98531.36;1759979;81;21243;-63
2022/09/29 06:29:54;;;;;;;7.42;3.47;;;;;;;12.64;100.00;98537.92;1758376;80;21083;-64
2022/09/29 06:32:21;;;;;;;6.40;3.60;;;;;;;12.95;100.00;98536.77;1752678;81;21009;-64
2022/09/29 06:37:35;;;;;;;4.97;2.85;;;;;;;13.08;100.00;98535.02;1703220;80;21501;-64
2022/09/29 06:40:03;;;;;;;7.58;4.28;;;;;;;13.21;100.00;98538.97;1698914;84;21333;-65
2022/09/29 06:42:30;;;;;;;8.30;3.50;;;;;;;13.28;100.00;98538.94;1672947;85;21553;-66
2022/09/29 06:44:57;;;;;;;12.15;3.35;;;;;;;13.35;100.00;98537.59;1674251;85;21089;-65
2022/09/29 06:47:25;;;;;;;4.37;2.58;;;;;;;13.46;100.00;98539.47;1671771;85;21663;-65
2022/09/29 06:49:52;;;;;;;8.33;2.50;;;;;;;13.58;100.00;98532.12;1669829;85;21581;-66
2022/09/29 06:52:20;;;;;;;4.12;2.30;;;;;;;13.70;100.00;98536.48;1671215;85;21150;-69
2022/09/29 06:54:46;;;;;;;8.38;2.70;;;;;;;13.79;100.00;98544.98;1670335;85;21581;-66
2022/09/29 06:57:13;;;;;;;12.95;3.45;;;;;;;13.93;100.00;98551.05;1671028;85;21566;-68
2022/09/29 06:59:41;;;;;;;3.20;2.00;;;;;;;14.07;100.00;98550.45;1670965;85;21203;-67
2022/09/29 07:02:09;;;;;;;4.58;2.20;;;;;;;14.31;99.64;98557.04;1703058;81;21079;-66
2022/09/29 07:04:36;;;;;;;15.78;13.58;;;;;;;14.42;98.55;98547.13;1738350;81;21129;-66
2022/09/29 07:07:03;;;;;;;5.90;3.22;;;;;;;14.42;98.55;98547.13;1733223;81;21005;-67
2022/09/29 07:09:31;;;;;;;3.20;2.33;;;;;;;14.52;97.53;98539.47;1755297;81;21084;-66
2022/09/29 07:12:01;;;;;;;3.92;2.27;;;;;;;14.60;96.44;98541.05;1762813;81;21492;-66
2022/09/29 07:14:27;;;;;;;8.18;2.50;;;;;;;14.66;95.98;98540.13;1763321;81;21053;-74
2022/09/29 07:16:55;;;;;;;8.98;2.08;;;;;;;14.76;96.27;98548.17;1761260;81;21398;-65
2022/09/29 07:19:23;;;;;;;7.15;2.72;;;;;;;14.85;95.75;98551.88;1747108;80;21017;-66
2022/09/29 07:21:53;;;;;;;6.42;2.20;;;;;;;14.94;94.76;98556.45;1745733;81;21508;-65
2022/09/29 07:24:23;;;;;;;13.20;2.22;;;;;;;14.99;93.90;98556.45;1744084;81;21473;-66
2022/09/29 07:26:50;;;;;;;9.35;2.00;;;;;;;15.08;93.36;98557.09;1747301;81;21512;-66
2022/09/29 07:29:17;;;;;;;3.45;1.70;;;;;;;15.15;92.02;98556.17;1751074;81;21140;-66
2022/09/29 07:31:47;;;;;;;8.50;2.10;;;;;;;15.21;90.66;98559.63;1745513;81;21088;-67
2022/09/29 07:34:14;;;;;;;13.22;2.17;;;;;;;15.27;88.89;98553.09;1745417;81;21565;-66
2022/09/29 07:36:42;;;;;;;4.33;2.30;;;;;;;15.29;86.77;98549.89;1741833;81;22165;-69
2022/09/29 07:39:11;;;;;;;5.70;1.27;;;;;;;15.33;84.84;98546.93;1746287;80;21045;-66
2022/09/29 07:41:40;;;;;;;8.85;1.50;;;;;;;15.38;84.07;98555.77;1740141;81;21095;-71
2022/09/29 07:44:08;;;;;;;2.87;1.70;;;;;;;15.46;83.87;98559.93;1740039;81;21516;-66
2022/09/29 07:46:35;;;;;;;12.63;1.98;;;;;;;15.58;82.82;98564.29;1744340;81;21115;-67
2022/09/29 07:49:03;;;;;;;10.98;2.02;;;;;;;15.74;82.57;98570.50;1750675;81;21036;-66
2022/09/29 07:51:30;;;;;;;6.85;2.25;;;;;;;15.98;82.17;98575.64;1746374;81;21544;-73
2022/09/29 07:54:05;;;;;;;5.92;1.32;;;;;;;16.22;80.09;98572.87;1747488;81;21573;-66
2022/09/29 07:56:32;;;;;;;5.90;1.65;;;;;;;16.35;77.92;98569.66;1716752;81;21080;-69
2022/09/29 07:59:01;;;;;;;4.92;1.30;;;;;;;16.42;75.56;98569.50;1743079;81;21013;-70
2022/09/29 08:01:30;;;;;;;2.83;1.20;;;;;;;16.39;74.23;98564.02;1747364;81;21052;-66
2022/09/29 08:04:02;;;;;;;2.30;1.17;;;;;;;16.33;74.97;98569.77;1743523;81;21029;-66
2022/09/29 08:06:38;;;;;;;5.60;1.40;;;;;;;16.28;74.17;98563.21;1751088;80;21057;-67
2022/09/29 08:09:12;;;;;;;11.15;1.62;;;;;;;16.22;73.54;98557.96;1727783;81;21035;-66
2022/09/29 08:11:41;;;;;;;2.33;1.30;;;;;;;16.16;72.25;98551.91;1757953;81;21068;-69
2022/09/29 08:14:09;;;;;;;2.37;1.55;;;;;;;16.11;72.67;98556.67;1792552;79;21099;-66
2022/09/29 08:16:36;;;;;;;4.35;1.17;;;;;;;16.11;72.81;98552.27;1729442;80;21561;-67
2022/09/29 08:19:04;;;;;;;4.72;1.22;;;;;;;16.13;72.41;98556.91;1775802;80;21172;-66
2022/09/29 08:21:35;;;;;;;6.17;1.30;;;;;;;16.18;71.04;98557.88;1793912;79;21029;-67
2022/09/29 08:24:01;;;;;;;2.75;1.35;;;;;;;16.25;71.08;98562.97;1753406;80;21110;-66
2022/09/29 08:26:28;;;;;;;12.90;1.85;;;;;;;16.38;70.19;98557.12;1792233;79;21069;-68
2022/09/29 08:28:56;;;;;;;5.28;1.20;;;;;;;16.51;69.24;98558.28;1745334;79;21072;-65
2022/09/29 08:31:27;;;;;;;12.93;2.30;;;;;;;16.63;68.14;98556.00;1736966;81;21454;-69
2022/09/29 08:33:57;;;;;;;9.38;2.00;;;;;;;16.80;68.65;98559.41;1697288;84;21028;-65
2022/09/29 08:36:25;;;;;;;4.03;1.35;;;;;;;16.97;67.65;98554.59;1728559;81;20996;-67
2022/09/29 08:38:56;;;;;;;4.50;1.27;;;;;;;17.08;66.43;98558.00;1746933;81;21059;-69
2022/09/29 08:42:02;;;;;;;3.60;1.40;;;;;;;17.13;66.32;98560.25;1751420;81;21085;-66
2022/09/29 08:44:39;;;;;;;3.22;0.90;;;;;;;17.22;66.49;98558.16;1714200;83;21264;-65
2022/09/29 08:47:18;;;;;;;4.85;1.62;;;;;;;17.32;65.60;98558.24;1725799;82;21061;-65
2022/09/29 08:49:56;;;;;;;7.75;3.25;;;;;;;17.44;65.56;98558.52;1698044;84;21099;-66
2022/09/29 08:52:34;;;;;;;6.08;2.25;;;;;;;17.58;64.92;98560.33;1733119;81;21098;-68
2022/09/29 08:55:21;;;;;;;7.40;1.65;;;;;;;17.76;65.13;98558.48;1741358;82;21056;-68
2022/09/29 08:57:58;;;;;;;8.10;1.82;;;;;;;17.92;64.11;98557.51;1747287;82;21219;-65
2022/09/29 09:00:41;;;;;;;6.33;1.60;;;;;;;18.05;64.25;98554.16;1748244;82;43331;-65
2022/09/29 09:03:39;;;;;;;10.93;2.17;;;;;;;18.18;63.45;98553.47;1726341;82;21132;-65
2022/09/29 09:06:35;;;;;;;3.40;1.85;;;;;;;18.33;63.47;98557.03;1757907;80;21032;-67
2022/09/29 09:09:20;;;;;;;5.50;1.60;;;;;;;18.51;62.29;98539.61;1793132;79;21057;-67
2022/09/29 09:12:05;;;;;;;6.20;1.00;;;;;;;18.69;61.98;98539.32;1791844;79;21160;-68
2022/09/29 09:15:01;;;;;;;5.55;1.17;;;;;;;18.86;59.49;98537.80;1810539;79;21048;-70
2022/09/29 09:17:52;;;;;;;6.75;1.25;;;;;;;18.94;58.90;98526.09;1812973;79;21033;-66
2022/09/29 09:20:37;;;;;;;2.72;1.00;;;;;;;18.96;58.42;98522.84;1813564;78;20993;-69
2022/09/29 09:23:54;;;;;;;5.12;3.40;;;;;;;18.99;58.43;98523.02;1812512;78;21028;-69
2022/09/29 09:26:39;;;;;;;4.62;1.80;;;;;;;19.00;59.40;98514.14;1813548;78;21297;-65
2022/09/29 09:29:28;;;;;;;3.15;1.10;;;;;;;19.00;58.89;98513.66;1810373;79;21024;-65
2022/09/29 09:32:00;;;;;;;2.27;1.30;;;;;;;18.99;57.82;98512.48;1813964;79;20977;-65
2022/09/29 09:34:45;;;;;;;6.28;1.20;;;;;;;19.01;58.05;98511.86;1811367;78;21028;-67
2022/09/29 09:37:19;;;;;;;3.72;1.10;;;;;;;19.04;58.20;98518.17;1813914;79;20953;-66
2022/09/29 09:40:04;;;;;;;3.08;0.85;;;;;;;19.14;57.71;98515.05;1813836;79;21605;-69
2022/09/29 09:42:35;;;;;;;3.12;0.90;;;;;;;19.19;56.12;98511.00;1813882;79;20989;-67
2022/09/29 09:45:14;;;;;;;2.45;1.07;;;;;;;19.28;56.64;98519.88;1813573;79;21032;-67
2022/09/29 09:47:48;;;;;;;2.17;1.10;;;;;;;19.40;53.95;98513.95;1812438;79;21028;-67
2022/09/29 09:50:18;;;;;;;4.15;1.00;;;;;;;19.43;53.77;98515.82;1813906;79;21113;-67
2022/09/29 09:52:50;;;;;;;4.08;1.15;;;;;;;19.45;53.40;98508.60;1810328;78;21099;-66
2022/09/29 09:55:20;;;;;;;4.87;0.98;;;;;;;19.54;52.83;98512.23;1813828;78;21012;-66
2022/09/29 09:58:25;;;;;;;3.75;1.17;;;;;;;19.53;53.19;98509.25;1813481;79;21016;-65
2022/09/29 10:01:03;;;;;;;5.72;1.25;;;;;;;19.51;52.47;98516.47;1790900;78;21036;-69
2022/09/29 10:03:31;;;;;;;5.47;1.32;;;;;;;19.43;50.98;98512.35;1813425;79;21348;-69
2022/09/29 10:05:58;;;;;;;4.45;1.00;;;;;;;19.40;51.22;98507.36;1809469;79;21149;-67
2022/09/29 10:08:31;;;;;;;1.52;1.15;;;;;;;19.41;51.49;98502.43;1800218;79;20982;-67
2022/09/29 10:10:58;;;;;;;2.75;1.12;;;;;;;19.40;52.21;98504.72;1776104;80;21541;-69
2022/09/29 10:13:29;;;;;;;3.33;0.93;;;;;;;19.39;51.42;98499.94;1783480;79;21033;-67
2022/09/29 10:16:15;;;;;;;1.37;0.60;;;;;;;19.39;52.80;98497.78;1783348;80;21033;-65
2022/09/29 10:18:51;;;;;;;4.67;1.10;;;;;;;19.38;52.79;98504.06;1730024;81;21187;-69
2022/09/29 10:21:43;;;;;;;4.08;1.07;;;;;;;19.32;52.37;98498.03;1730590;82;21054;-65
2022/09/29 10:24:32;;;;;;;5.47;1.77;;;;;;;19.27;52.42;98496.64;1730465;81;21066;-65
2022/09/29 10:27:02;;;;;;;3.02;1.20;;;;;;;19.24;52.40;98500.05;1743384;81;21061;-67
2022/09/29 10:29:44;;;;;;;2.55;1.25;;;;;;;19.25;52.88;98502.54;1754194;81;21030;-66
2022/09/29 10:32:18;;;;;;;3.08;1.15;;;;;;;19.31;52.57;98494.56;1750889;81;21930;-66
2022/09/29 10:34:56;;;;;;;4.58;1.30;;;;;;;19.36;50.56;98496.77;1752549;81;21108;-68
2022/09/29 10:37:34;;;;;;;2.77;1.32;;;;;;;19.43;49.93;98491.25;1722431;81;21541;-69
2022/09/29 10:40:13;;;;;;;5.00;1.92;;;;;;;19.50;49.69;98497.17;1802106;79;20994;-66
2022/09/29 10:42:45;;;;;;;3.67;1.30;;;;;;;19.57;49.26;98502.72;1798684;79;21025;-67
2022/09/29 10:45:28;;;;;;;3.40;1.30;;;;;;;19.63;49.61;98499.97;1798145;79;21049;-67
2022/09/29 10:48:07;;;;;;;4.28;1.00;;;;;;;19.65;49.92;98500.66;1796303;79;24264;-65
2022/09/29 10:50:54;;;;;;;5.33;1.50;;;;;;;19.61;48.92;98494.35;1807265;77;21024;-68
2022/09/29 10:53:34;;;;;;;2.67;1.40;;;;;;;19.55;49.87;98494.12;1804277;79;21028;-69
2022/09/29 10:56:21;;;;;;;6.87;2.15;;;;;;;19.51;50.03;98486.97;1807389;77;21075;-67
2022/09/29 10:58:56;;;;;;;8.50;2.10;;;;;;;19.48;50.70;98487.71;1808248;77;21240;-66
2022/09/29 11:01:30;;;;;;;3.77;2.67;;;;;;;19.44;51.34;98491.11;1808227;79;21045;-67
2022/09/29 11:04:03;;;;;;;5.80;2.08;;;;;;;19.48;52.19;98498.26;1808752;79;21033;-66
2022/09/29 11:06:35;;;;;;;1.72;1.30;;;;;;;19.56;52.70;98500.56;1756148;79;21010;-68
2022/09/29 11:09:16;;;;;;;2.50;1.72;;;;;;;19.70;52.70;98489.20;1809367;79;21704;-69
2022/09/29 11:11:53;;;;;;;4.83;1.57;;;;;;;19.81;52.34;98495.11;1808697;79;21157;-67
2022/09/29 11:14:40;;;;;;;3.87;1.30;;;;;;;19.92;51.72;98492.30;1810531;79;21468;-67
2022/09/29 11:17:30;;;;;;;2.52;2.22;;;;;;;20.02;51.82;98497.52;1783941;79;21031;-68
2022/09/29 11:20:02;;;;;;;6.95;3.10;;;;;;;20.14;51.51;98494.20;1810362;78;21510;-66
2022/09/29 11:22:49;;;;;;;;;;;;;;;20.21;51.50;98487.34;1786195;79;21087;-68
2022/09/29 11:25:56;;;;;;;4.20;2.40;;;;;;;20.29;52.02;98491.40;1810648;79;21158;-76
2022/09/29 11:28:54;;;;;;;7.12;3.52;;;;;;;20.36;53.11;98489.84;1806784;79;20992;-68
2022/09/29 11:31:45;;;;;;;16.05;12.37;;;;;;;20.43;53.24;98487.44;1810591;79;21058;-68
2022/09/29 11:34:23;;;;;;;5.17;3.65;;;;;;;20.45;53.29;98486.31;1812393;78;21015;-65
2022/09/29 11:36:59;;;;;;;4.90;2.65;;;;;;;20.45;53.37;98486.80;1809725;78;21062;-67
2022/09/29 11:39:40;;;;;;;3.70;2.10;;;;;;;20.45;53.29;98486.31;1810434;79;21625;-67
2022/09/29 11:42:36;;;;;;;4.37;2.67;;;;;;;20.48;54.18;98490.47;1809770;78;21074;-68
2022/09/29 11:45:07;;;;;;;4.47;3.20;;;;;;;20.50;54.14;98486.70;1810291;79;21025;-65
2022/09/29 11:48:05;;;;;;;3.92;3.12;;;;;;;20.50;54.75;98487.20;1809836;79;21050;-66
2022/09/29 11:50:52;;;;;;;7.50;4.50;;;;;;;20.50;55.25;98489.84;1809651;79;21583;-66
2022/09/29 11:53:44;;;;;;;6.75;3.67;;;;;;;20.51;55.51;98500.75;1810301;78;21361;-66
2022/09/29 11:56:25;;;;;;;7.42;3.45;;;;;;;20.55;55.97;98485.77;1809898;79;21023;-66
2022/09/29 11:59:12;;;;;;;5.33;3.70;;;;;;;20.63;56.50;98481.87;1810465;79;21426;-66
2022/09/29 12:02:01;;;;;;;7.53;4.42;;;;;;;20.72;56.69;98476.18;1810293;79;22343;-67
2022/09/29 12:05:04;;;;;;;11.15;3.10;;;;;;;20.83;56.71;98481.71;1806721;79;21046;-66
2022/09/29 12:07:55;;;;;;;3.95;2.58;;;;;;;20.89;56.59;98475.83;1810053;78;21250;-67